sensor_id;sensor_type;location;lat;lon;timestamp;P1;durP1;ratioP1;P2;durP2;ratioP2
31978;SDS011;18502;43.574;1.276;2023-04-06T00:00:06;5.82;;;3.55;;
31978;SDS011;18502;43.574;1.276;2023-04-06T00:02:34;12.00;;;3.65;;
31978;SDS011;18502;43.574;1.276;2023-04-06T00:04:59;4.40;;;2.85;;
31978;SDS011;18502;43.574;1.276;2023-04-06T00:07:25;5.20;;;3.22;;
31978;SDS011;18502;43.574;1.276;2023-04-06T00:09:53;5.55;;;3.45;;
31978;SDS011;18502;43.574;1.276;2023-04-06T00:12:18;5.50;;;3.25;;
31978;SDS011;18502;43.574;1.276;2023-04-06T00:14:44;4.65;;;3.50;;
31978;SDS011;18502;43.574;1.276;2023-04-06T00:17:10;6.63;;;3.42;;
31978;SDS011;18502;43.574;1.276;2023-04-06T00:19:36;5.97;;;3.53;;
31978;SDS011;18502;43.574;1.276;2023-04-06T00:22:02;6.53;;;3.78;;
31978;SDS011;18502;43.574;1.276;2023-04-06T00:24:27;5.55;;;3.17;;
31978;SDS011;18502;43.574;1.276;2023-04-06T00:26:53;6.25;;;3.70;;
31978;SDS011;18502;43.574;1.276;2023-04-06T00:29:20;6.85;;;3.67;;
31978;SDS011;18502;43.574;1.276;2023-04-06T00:31:45;7.05;;;3.60;;
31978;SDS011;18502;43.574;1.276;2023-04-06T00:34:11;6.28;;;3.42;;
31978;SDS011;18502;43.574;1.276;2023-04-06T00:36:37;7.20;;;3.75;;
31978;SDS011;18502;43.574;1.276;2023-04-06T00:39:02;7.32;;;3.55;;
31978;SDS011;18502;43.574;1.276;2023-04-06T00:41:28;6.20;;;3.47;;
31978;SDS011;18502;43.574;1.276;2023-04-06T00:43:54;4.80;;;3.10;;
31978;SDS011;18502;43.574;1.276;2023-04-06T00:46:20;4.82;;;3.30;;
31978;SDS011;18502;43.574;1.276;2023-04-06T00:48:45;8.30;;;3.28;;
31978;SDS011;18502;43.574;1.276;2023-04-06T00:51:11;5.18;;;3.15;;
31978;SDS011;18502;43.574;1.276;2023-04-06T00:53:37;5.63;;;3.10;;
31978;SDS011;18502;43.574;1.276;2023-04-06T00:56:02;5.25;;;3.42;;
31978;SDS011;18502;43.574;1.276;2023-04-06T00:58:28;5.32;;;3.92;;
31978;SDS011;18502;43.574;1.276;2023-04-06T01:00:54;7.40;;;3.72;;
31978;SDS011;18502;43.574;1.276;2023-04-06T01:03:20;4.88;;;3.45;;
31978;SDS011;18502;43.574;1.276;2023-04-06T01:05:46;5.57;;;3.50;;
31978;SDS011;18502;43.574;1.276;2023-04-06T01:08:11;8.00;;;3.88;;
31978;SDS011;18502;43.574;1.276;2023-04-06T01:10:37;7.13;;;4.38;;
31978;SDS011;18502;43.574;1.276;2023-04-06T01:13:03;7.10;;;3.38;;
31978;SDS011;18502;43.574;1.276;2023-04-06T01:15:28;7.68;;;4.78;;
31978;SDS011;18502;43.574;1.276;2023-04-06T01:17:55;9.73;;;4.35;;
31978;SDS011;18502;43.574;1.276;2023-04-06T01:20:20;10.77;;;4.43;;
31978;SDS011;18502;43.574;1.276;2023-04-06T01:22:46;6.93;;;3.92;;
31978;SDS011;18502;43.574;1.276;2023-04-06T01:25:12;7.65;;;3.90;;
31978;SDS011;18502;43.574;1.276;2023-04-06T01:27:38;4.90;;;3.38;;
31978;SDS011;18502;43.574;1.276;2023-04-06T01:30:03;7.35;;;3.83;;
31978;SDS011;18502;43.574;1.276;2023-04-06T01:32:30;8.02;;;3.70;;
31978;SDS011;18502;43.574;1.276;2023-04-06T01:34:56;7.88;;;4.10;;
31978;SDS011;18502;43.574;1.276;2023-04-06T01:37:21;6.53;;;3.92;;
31978;SDS011;18502;43.574;1.276;2023-04-06T01:39:47;8.60;;;3.22;;
31978;SDS011;18502;43.574;1.276;2023-04-06T01:42:13;7.70;;;3.78;;
31978;SDS011;18502;43.574;1.276;2023-04-06T01:44:38;8.73;;;4.90;;
31978;SDS011;18502;43.574;1.276;2023-04-06T01:47:04;9.85;;;4.82;;
31978;SDS011;18502;43.574;1.276;2023-04-06T01:49:30;6.97;;;3.80;;
31978;SDS011;18502;43.574;1.276;2023-04-06T01:51:56;6.30;;;3.80;;
31978;SDS011;18502;43.574;1.276;2023-04-06T01:54:21;8.88;;;4.32;;
31978;SDS011;18502;43.574;1.276;2023-04-06T01:56:47;8.73;;;4.55;;
31978;SDS011;18502;43.574;1.276;2023-04-06T01:59:15;6.85;;;3.85;;
31978;SDS011;18502;43.574;1.276;2023-04-06T02:01:40;9.57;;;4.15;;
31978;SDS011;18502;43.574;1.276;2023-04-06T02:04:06;6.75;;;3.90;;
31978;SDS011;18502;43.574;1.276;2023-04-06T02:06:32;7.82;;;4.00;;
31978;SDS011;18502;43.574;1.276;2023-04-06T02:08:57;8.65;;;4.40;;
31978;SDS011;18502;43.574;1.276;2023-04-06T02:11:23;7.13;;;4.72;;
31978;SDS011;18502;43.574;1.276;2023-04-06T02:13:49;8.65;;;4.20;;
31978;SDS011;18502;43.574;1.276;2023-04-06T02:16:14;10.13;;;4.30;;
31978;SDS011;18502;43.574;1.276;2023-04-06T02:18:40;6.75;;;3.70;;
31978;SDS011;18502;43.574;1.276;2023-04-06T02:21:06;10.13;;;4.13;;
31978;SDS011;18502;43.574;1.276;2023-04-06T02:23:32;5.68;;;3.47;;
31978;SDS011;18502;43.574;1.276;2023-04-06T02:25:57;5.63;;;3.20;;
31978;SDS011;18502;43.574;1.276;2023-04-06T02:28:23;4.85;;;3.38;;
31978;SDS011;18502;43.574;1.276;2023-04-06T02:30:49;7.28;;;3.00;;
31978;SDS011;18502;43.574;1.276;2023-04-06T02:33:14;7.57;;;3.60;;
31978;SDS011;18502;43.574;1.276;2023-04-06T02:38:28;6.53;;;2.90;;
31978;SDS011;18502;43.574;1.276;2023-04-06T02:40:53;6.18;;;3.20;;
31978;SDS011;18502;43.574;1.276;2023-04-06T02:43:19;4.45;;;2.92;;
31978;SDS011;18502;43.574;1.276;2023-04-06T02:45:45;5.07;;;2.90;;
31978;SDS011;18502;43.574;1.276;2023-04-06T02:48:11;3.50;;;2.72;;
31978;SDS011;18502;43.574;1.276;2023-04-06T02:50:37;8.68;;;3.85;;
31978;SDS011;18502;43.574;1.276;2023-04-06T02:53:02;8.80;;;3.60;;
31978;SDS011;18502;43.574;1.276;2023-04-06T02:55:28;6.32;;;3.75;;
31978;SDS011;18502;43.574;1.276;2023-04-06T02:57:53;5.13;;;2.97;;
31978;SDS011;18502;43.574;1.276;2023-04-06T03:00:19;4.88;;;3.10;;
31978;SDS011;18502;43.574;1.276;2023-04-06T03:02:45;6.47;;;3.00;;
31978;SDS011;18502;43.574;1.276;2023-04-06T03:05:11;4.88;;;2.85;;
31978;SDS011;18502;43.574;1.276;2023-04-06T03:07:37;3.83;;;2.65;;
31978;SDS011;18502;43.574;1.276;2023-04-06T03:10:02;4.35;;;3.00;;
31978;SDS011;18502;43.574;1.276;2023-04-06T03:12:28;6.80;;;3.25;;
31978;SDS011;18502;43.574;1.276;2023-04-06T03:14:54;4.93;;;3.03;;
31978;SDS011;18502;43.574;1.276;2023-04-06T03:17:20;6.75;;;3.47;;
31978;SDS011;18502;43.574;1.276;2023-04-06T03:19:45;4.90;;;3.53;;
31978;SDS011;18502;43.574;1.276;2023-04-06T03:22:11;8.55;;;4.43;;
31978;SDS011;18502;43.574;1.276;2023-04-06T03:24:37;9.88;;;4.78;;
31978;SDS011;18502;43.574;1.276;2023-04-06T03:27:02;10.43;;;4.38;;
31978;SDS011;18502;43.574;1.276;2023-04-06T03:29:28;8.05;;;4.40;;
31978;SDS011;18502;43.574;1.276;2023-04-06T03:31:53;7.68;;;3.95;;
31978;SDS011;18502;43.574;1.276;2023-04-06T03:34:19;9.00;;;4.30;;
31978;SDS011;18502;43.574;1.276;2023-04-06T03:36:45;10.13;;;4.30;;
31978;SDS011;18502;43.574;1.276;2023-04-06T03:39:11;9.32;;;4.45;;
31978;SDS011;18502;43.574;1.276;2023-04-06T03:41:37;6.60;;;3.90;;
31978;SDS011;18502;43.574;1.276;2023-04-06T03:44:03;9.55;;;4.18;;
31978;SDS011;18502;43.574;1.276;2023-04-06T03:46:28;6.30;;;3.72;;
31978;SDS011;18502;43.574;1.276;2023-04-06T03:48:54;7.18;;;3.90;;
31978;SDS011;18502;43.574;1.276;2023-04-06T03:51:20;8.10;;;4.10;;
31978;SDS011;18502;43.574;1.276;2023-04-06T03:53:46;5.68;;;3.40;;
31978;SDS011;18502;43.574;1.276;2023-04-06T03:56:11;4.88;;;3.20;;
31978;SDS011;18502;43.574;1.276;2023-04-06T03:58:37;4.70;;;3.08;;
31978;SDS011;18502;43.574;1.276;2023-04-06T04:01:02;6.65;;;3.15;;
31978;SDS011;18502;43.574;1.276;2023-04-06T04:03:28;4.70;;;2.97;;
31978;SDS011;18502;43.574;1.276;2023-04-06T04:05:54;3.90;;;3.00;;
31978;SDS011;18502;43.574;1.276;2023-04-06T04:08:23;5.45;;;2.60;;
31978;SDS011;18502;43.574;1.276;2023-04-06T04:10:49;5.53;;;2.90;;
31978;SDS011;18502;43.574;1.276;2023-04-06T04:13:15;5.47;;;2.72;;
31978;SDS011;18502;43.574;1.276;2023-04-06T04:15:40;4.18;;;2.75;;
31978;SDS011;18502;43.574;1.276;2023-04-06T04:18:06;4.05;;;2.95;;
31978;SDS011;18502;43.574;1.276;2023-04-06T04:20:32;6.13;;;2.67;;
31978;SDS011;18502;43.574;1.276;2023-04-06T04:22:59;4.97;;;2.70;;
31978;SDS011;18502;43.574;1.276;2023-04-06T04:25:24;6.32;;;3.40;;
31978;SDS011;18502;43.574;1.276;2023-04-06T04:27:50;4.03;;;2.70;;
31978;SDS011;18502;43.574;1.276;2023-04-06T04:30:16;4.90;;;3.50;;
31978;SDS011;18502;43.574;1.276;2023-04-06T04:32:41;3.90;;;2.80;;
31978;SDS011;18502;43.574;1.276;2023-04-06T04:35:07;6.38;;;3.00;;
31978;SDS011;18502;43.574;1.276;2023-04-06T04:37:33;6.15;;;3.50;;
31978;SDS011;18502;43.574;1.276;2023-04-06T04:40:00;7.32;;;2.80;;
31978;SDS011;18502;43.574;1.276;2023-04-06T04:42:26;4.10;;;2.80;;
31978;SDS011;18502;43.574;1.276;2023-04-06T04:44:51;4.07;;;2.50;;
31978;SDS011;18502;43.574;1.276;2023-04-06T04:47:17;3.75;;;2.75;;
31978;SDS011;18502;43.574;1.276;2023-04-06T04:49:43;4.20;;;2.22;;
31978;SDS011;18502;43.574;1.276;2023-04-06T04:52:08;4.50;;;2.97;;
31978;SDS011;18502;43.574;1.276;2023-04-06T04:54:34;3.53;;;2.42;;
31978;SDS011;18502;43.574;1.276;2023-04-06T04:57:00;5.18;;;3.63;;
31978;SDS011;18502;43.574;1.276;2023-04-06T04:59:25;6.90;;;4.15;;
31978;SDS011;18502;43.574;1.276;2023-04-06T05:01:51;10.20;;;4.88;;
31978;SDS011;18502;43.574;1.276;2023-04-06T05:04:17;8.93;;;4.38;;
31978;SDS011;18502;43.574;1.276;2023-04-06T05:06:42;5.32;;;3.90;;
31978;SDS011;18502;43.574;1.276;2023-04-06T05:09:08;11.88;;;4.05;;
31978;SDS011;18502;43.574;1.276;2023-04-06T05:11:34;4.63;;;3.00;;
31978;SDS011;18502;43.574;1.276;2023-04-06T05:14:00;5.40;;;3.92;;
31978;SDS011;18502;43.574;1.276;2023-04-06T05:16:25;7.82;;;2.80;;
31978;SDS011;18502;43.574;1.276;2023-04-06T05:18:51;5.70;;;3.20;;
31978;SDS011;18502;43.574;1.276;2023-04-06T05:21:18;4.60;;;3.10;;
31978;SDS011;18502;43.574;1.276;2023-04-06T05:23:44;6.07;;;3.25;;
31978;SDS011;18502;43.574;1.276;2023-04-06T05:26:10;4.05;;;2.90;;
31978;SDS011;18502;43.574;1.276;2023-04-06T05:28:36;6.55;;;3.30;;
31978;SDS011;18502;43.574;1.276;2023-04-06T05:31:01;5.60;;;3.42;;
31978;SDS011;18502;43.574;1.276;2023-04-06T05:33:27;5.38;;;3.28;;
31978;SDS011;18502;43.574;1.276;2023-04-06T05:35:53;6.93;;;2.80;;
31978;SDS011;18502;43.574;1.276;2023-04-06T05:38:19;5.53;;;3.17;;
31978;SDS011;18502;43.574;1.276;2023-04-06T05:40:44;3.90;;;3.10;;
31978;SDS011;18502;43.574;1.276;2023-04-06T05:43:10;5.20;;;3.80;;
31978;SDS011;18502;43.574;1.276;2023-04-06T05:45:36;6.50;;;3.60;;
31978;SDS011;18502;43.574;1.276;2023-04-06T05:48:02;7.72;;;3.75;;
31978;SDS011;18502;43.574;1.276;2023-04-06T05:50:28;3.90;;;3.13;;
31978;SDS011;18502;43.574;1.276;2023-04-06T05:52:53;7.38;;;3.88;;
31978;SDS011;18502;43.574;1.276;2023-04-06T05:55:19;4.88;;;3.50;;
31978;SDS011;18502;43.574;1.276;2023-04-06T05:57:45;5.90;;;3.58;;
31978;SDS011;18502;43.574;1.276;2023-04-06T06:00:11;5.18;;;3.00;;
31978;SDS011;18502;43.574;1.276;2023-04-06T06:02:37;6.50;;;3.40;;
31978;SDS011;18502;43.574;1.276;2023-04-06T06:05:02;5.07;;;3.33;;
31978;SDS011;18502;43.574;1.276;2023-04-06T06:07:28;4.40;;;3.10;;
31978;SDS011;18502;43.574;1.276;2023-04-06T06:09:57;4.32;;;3.20;;
31978;SDS011;18502;43.574;1.276;2023-04-06T06:12:23;6.93;;;3.20;;
31978;SDS011;18502;43.574;1.276;2023-04-06T06:14:49;5.28;;;3.63;;
31978;SDS011;18502;43.574;1.276;2023-04-06T06:17:14;5.50;;;2.75;;
31978;SDS011;18502;43.574;1.276;2023-04-06T06:19:40;6.20;;;3.97;;
31978;SDS011;18502;43.574;1.276;2023-04-06T06:22:06;6.45;;;3.45;;
31978;SDS011;18502;43.574;1.276;2023-04-06T06:24:31;5.53;;;4.53;;
31978;SDS011;18502;43.574;1.276;2023-04-06T06:26:57;6.32;;;4.55;;
31978;SDS011;18502;43.574;1.276;2023-04-06T06:29:23;6.32;;;4.53;;
31978;SDS011;18502;43.574;1.276;2023-04-06T06:31:49;12.05;;;5.53;;
31978;SDS011;18502;43.574;1.276;2023-04-06T06:34:15;11.20;;;5.50;;
31978;SDS011;18502;43.574;1.276;2023-04-06T06:36:40;19.52;;;10.07;;
31978;SDS011;18502;43.574;1.276;2023-04-06T06:39:06;27.48;;;11.90;;
31978;SDS011;18502;43.574;1.276;2023-04-06T06:41:32;7.22;;;5.28;;
31978;SDS011;18502;43.574;1.276;2023-04-06T06:43:57;5.55;;;3.65;;
31978;SDS011;18502;43.574;1.276;2023-04-06T06:46:23;4.95;;;3.47;;
31978;SDS011;18502;43.574;1.276;2023-04-06T06:48:49;5.00;;;3.92;;
31978;SDS011;18502;43.574;1.276;2023-04-06T06:51:14;7.32;;;4.40;;
31978;SDS011;18502;43.574;1.276;2023-04-06T06:53:40;5.95;;;3.90;;
31978;SDS011;18502;43.574;1.276;2023-04-06T06:56:06;6.97;;;4.60;;
31978;SDS011;18502;43.574;1.276;2023-04-06T06:58:31;13.15;;;4.25;;
31978;SDS011;18502;43.574;1.276;2023-04-06T07:00:57;5.65;;;3.50;;
31978;SDS011;18502;43.574;1.276;2023-04-06T07:03:24;4.32;;;3.30;;
31978;SDS011;18502;43.574;1.276;2023-04-06T07:05:50;5.85;;;3.47;;
31978;SDS011;18502;43.574;1.276;2023-04-06T07:08:22;6.93;;;3.90;;
31978;SDS011;18502;43.574;1.276;2023-04-06T07:10:49;4.25;;;3.78;;
31978;SDS011;18502;43.574;1.276;2023-04-06T07:13:17;9.43;;;4.68;;
31978;SDS011;18502;43.574;1.276;2023-04-06T07:15:47;5.82;;;3.20;;
31978;SDS011;18502;43.574;1.276;2023-04-06T07:18:13;6.57;;;3.65;;
31978;SDS011;18502;43.574;1.276;2023-04-06T07:20:39;10.23;;;3.88;;
31978;SDS011;18502;43.574;1.276;2023-04-06T07:23:05;6.30;;;3.78;;
31978;SDS011;18502;43.574;1.276;2023-04-06T07:25:31;6.35;;;3.35;;
31978;SDS011;18502;43.574;1.276;2023-04-06T07:27:56;9.93;;;4.70;;
31978;SDS011;18502;43.574;1.276;2023-04-06T07:30:22;5.55;;;3.67;;
31978;SDS011;18502;43.574;1.276;2023-04-06T07:32:50;9.85;;;4.22;;
31978;SDS011;18502;43.574;1.276;2023-04-06T07:35:15;6.70;;;3.20;;
31978;SDS011;18502;43.574;1.276;2023-04-06T07:37:41;6.55;;;4.00;;
31978;SDS011;18502;43.574;1.276;2023-04-06T07:40:07;7.28;;;3.78;;
31978;SDS011;18502;43.574;1.276;2023-04-06T07:42:33;5.35;;;3.67;;
31978;SDS011;18502;43.574;1.276;2023-04-06T07:44:59;6.03;;;2.65;;
31978;SDS011;18502;43.574;1.276;2023-04-06T07:47:25;5.18;;;2.60;;
31978;SDS011;18502;43.574;1.276;2023-04-06T07:49:51;7.20;;;3.20;;
31978;SDS011;18502;43.574;1.276;2023-04-06T07:52:16;8.20;;;3.78;;
31978;SDS011;18502;43.574;1.276;2023-04-06T07:54:42;6.30;;;3.30;;
31978;SDS011;18502;43.574;1.276;2023-04-06T07:57:08;4.28;;;2.90;;
31978;SDS011;18502;43.574;1.276;2023-04-06T07:59:33;5.18;;;2.63;;
31978;SDS011;18502;43.574;1.276;2023-04-06T08:01:59;4.43;;;2.70;;
31978;SDS011;18502;43.574;1.276;2023-04-06T08:04:25;3.53;;;2.42;;
31978;SDS011;18502;43.574;1.276;2023-04-06T08:06:51;7.25;;;3.05;;
31978;SDS011;18502;43.574;1.276;2023-04-06T08:09:17;6.03;;;2.50;;
31978;SDS011;18502;43.574;1.276;2023-04-06T08:11:42;5.93;;;2.85;;
31978;SDS011;18502;43.574;1.276;2023-04-06T08:14:09;4.35;;;2.42;;
31978;SDS011;18502;43.574;1.276;2023-04-06T08:16:35;8.32;;;3.25;;
31978;SDS011;18502;43.574;1.276;2023-04-06T08:19:01;3.90;;;2.70;;
31978;SDS011;18502;43.574;1.276;2023-04-06T08:21:26;5.97;;;3.30;;
31978;SDS011;18502;43.574;1.276;2023-04-06T08:23:52;5.20;;;2.78;;
31978;SDS011;18502;43.574;1.276;2023-04-06T08:26:17;4.63;;;3.20;;
31978;SDS011;18502;43.574;1.276;2023-04-06T08:28:43;5.90;;;3.45;;
31978;SDS011;18502;43.574;1.276;2023-04-06T08:31:09;4.95;;;2.70;;
31978;SDS011;18502;43.574;1.276;2023-04-06T08:33:34;3.10;;;2.38;;
31978;SDS011;18502;43.574;1.276;2023-04-06T08:36:08;4.90;;;2.50;;
31978;SDS011;18502;43.574;1.276;2023-04-06T08:38:35;4.00;;;2.53;;
31978;SDS011;18502;43.574;1.276;2023-04-06T08:41:06;5.88;;;2.95;;
31978;SDS011;18502;43.574;1.276;2023-04-06T08:43:33;4.38;;;2.85;;
31978;SDS011;18502;43.574;1.276;2023-04-06T08:46:06;4.45;;;2.33;;
31978;SDS011;18502;43.574;1.276;2023-04-06T08:48:32;3.20;;;2.70;;
31978;SDS011;18502;43.574;1.276;2023-04-06T08:50:59;3.75;;;2.60;;
31978;SDS011;18502;43.574;1.276;2023-04-06T08:53:26;7.95;;;2.90;;
31978;SDS011;18502;43.574;1.276;2023-04-06T08:55:52;4.43;;;2.65;;
31978;SDS011;18502;43.574;1.276;2023-04-06T08:58:19;5.00;;;2.33;;
31978;SDS011;18502;43.574;1.276;2023-04-06T09:00:46;3.88;;;2.30;;
31978;SDS011;18502;43.574;1.276;2023-04-06T09:03:12;11.00;;;3.00;;
31978;SDS011;18502;43.574;1.276;2023-04-06T09:05:39;7.47;;;2.88;;
31978;SDS011;18502;43.574;1.276;2023-04-06T09:08:04;4.47;;;2.47;;
31978;SDS011;18502;43.574;1.276;2023-04-06T09:10:31;5.40;;;2.65;;
31978;SDS011;18502;43.574;1.276;2023-04-06T09:13:07;3.58;;;2.38;;
31978;SDS011;18502;43.574;1.276;2023-04-06T09:15:34;6.75;;;3.08;;
31978;SDS011;18502;43.574;1.276;2023-04-06T09:18:00;4.63;;;3.13;;
31978;SDS011;18502;43.574;1.276;2023-04-06T09:20:26;7.00;;;3.45;;
31978;SDS011;18502;43.574;1.276;2023-04-06T09:22:53;7.38;;;2.97;;
31978;SDS011;18502;43.574;1.276;2023-04-06T09:25:22;7.78;;;2.88;;
31978;SDS011;18502;43.574;1.276;2023-04-06T09:28:00;5.03;;;2.60;;
31978;SDS011;18502;43.574;1.276;2023-04-06T09:30:27;7.32;;;3.50;;
31978;SDS011;18502;43.574;1.276;2023-04-06T09:32:54;4.88;;;3.13;;
31978;SDS011;18502;43.574;1.276;2023-04-06T09:35:21;7.80;;;3.22;;
31978;SDS011;18502;43.574;1.276;2023-04-06T09:37:47;5.80;;;3.30;;
31978;SDS011;18502;43.574;1.276;2023-04-06T09:40:14;6.90;;;2.80;;
31978;SDS011;18502;43.574;1.276;2023-04-06T09:42:42;5.50;;;2.85;;
31978;SDS011;18502;43.574;1.276;2023-04-06T09:45:15;5.07;;;3.03;;
31978;SDS011;18502;43.574;1.276;2023-04-06T09:47:42;4.18;;;2.80;;
31978;SDS011;18502;43.574;1.276;2023-04-06T09:50:10;7.15;;;2.80;;
31978;SDS011;18502;43.574;1.276;2023-04-06T09:52:38;5.80;;;2.67;;
31978;SDS011;18502;43.574;1.276;2023-04-06T09:55:10;6.40;;;2.65;;
31978;SDS011;18502;43.574;1.276;2023-04-06T10:00:06;3.97;;;2.47;;
31978;SDS011;18502;43.574;1.276;2023-04-06T10:05:16;3.42;;;2.22;;
31978;SDS011;18502;43.574;1.276;2023-04-06T10:07:57;3.70;;;2.35;;
31978;SDS011;18502;43.574;1.276;2023-04-06T10:10:26;6.15;;;2.53;;
31978;SDS011;18502;43.574;1.276;2023-04-06T10:12:53;3.72;;;2.20;;
31978;SDS011;18502;43.574;1.276;2023-04-06T10:15:21;6.95;;;2.88;;
31978;SDS011;18502;43.574;1.276;2023-04-06T10:17:47;5.72;;;2.80;;
31978;SDS011;18502;43.574;1.276;2023-04-06T10:20:18;10.45;;;3.88;;
31978;SDS011;18502;43.574;1.276;2023-04-06T10:23:09;5.10;;;3.30;;
31978;SDS011;18502;43.574;1.276;2023-04-06T10:25:58;6.85;;;3.58;;
31978;SDS011;18502;43.574;1.276;2023-04-06T10:28:25;3.95;;;2.25;;
31978;SDS011;18502;43.574;1.276;2023-04-06T10:30:59;6.47;;;2.42;;
31978;SDS011;18502;43.574;1.276;2023-04-06T10:33:26;3.17;;;2.22;;
31978;SDS011;18502;43.574;1.276;2023-04-06T10:35:53;6.60;;;2.80;;
31978;SDS011;18502;43.574;1.276;2023-04-06T10:38:20;3.03;;;2.50;;
31978;SDS011;18502;43.574;1.276;2023-04-06T10:40:48;6.18;;;2.42;;
31978;SDS011;18502;43.574;1.276;2023-04-06T10:43:17;3.90;;;2.22;;
31978;SDS011;18502;43.574;1.276;2023-04-06T10:45:45;4.18;;;2.70;;
31978;SDS011;18502;43.574;1.276;2023-04-06T10:48:24;4.43;;;2.17;;
31978;SDS011;18502;43.574;1.276;2023-04-06T10:51:01;3.90;;;2.30;;
31978;SDS011;18502;43.574;1.276;2023-04-06T10:53:27;3.20;;;1.80;;
31978;SDS011;18502;43.574;1.276;2023-04-06T10:55:54;1.58;;;1.30;;
31978;SDS011;18502;43.574;1.276;2023-04-06T10:58:24;3.05;;;2.17;;
31978;SDS011;18502;43.574;1.276;2023-04-06T11:00:50;4.05;;;1.85;;
31978;SDS011;18502;43.574;1.276;2023-04-06T11:03:16;3.03;;;1.90;;
31978;SDS011;18502;43.574;1.276;2023-04-06T11:05:45;2.90;;;1.63;;
31978;SDS011;18502;43.574;1.276;2023-04-06T11:08:27;5.93;;;1.95;;
31978;SDS011;18502;43.574;1.276;2023-04-06T11:11:10;4.45;;;2.15;;
31978;SDS011;18502;43.574;1.276;2023-04-06T11:13:43;3.65;;;2.30;;
31978;SDS011;18502;43.574;1.276;2023-04-06T11:16:14;5.22;;;2.35;;
31978;SDS011;18502;43.574;1.276;2023-04-06T11:19:14;2.45;;;1.77;;
31978;SDS011;18502;43.574;1.276;2023-04-06T11:24:20;6.60;;;1.80;;
31978;SDS011;18502;43.574;1.276;2023-04-06T11:26:48;2.67;;;1.35;;
31978;SDS011;18502;43.574;1.276;2023-04-06T11:29:22;3.50;;;1.67;;
31978;SDS011;18502;43.574;1.276;2023-04-06T11:31:50;3.22;;;1.52;;
31978;SDS011;18502;43.574;1.276;2023-04-06T11:34:24;4.13;;;1.65;;
31978;SDS011;18502;43.574;1.276;2023-04-06T11:36:57;2.95;;;1.35;;
31978;SDS011;18502;43.574;1.276;2023-04-06T11:39:25;1.48;;;1.35;;
31978;SDS011;18502;43.574;1.276;2023-04-06T11:41:57;3.90;;;1.80;;
31978;SDS011;18502;43.574;1.276;2023-04-06T11:44:36;2.63;;;1.40;;
31978;SDS011;18502;43.574;1.276;2023-04-06T11:47:09;1.95;;;1.50;;
31978;SDS011;18502;43.574;1.276;2023-04-06T11:49:39;3.80;;;1.40;;
31978;SDS011;18502;43.574;1.276;2023-04-06T11:52:22;2.13;;;1.20;;
31978;SDS011;18502;43.574;1.276;2023-04-06T11:54:51;3.80;;;2.13;;
31978;SDS011;18502;43.574;1.276;2023-04-06T11:57:18;3.97;;;1.38;;
31978;SDS011;18502;43.574;1.276;2023-04-06T11:59:45;1.83;;;1.35;;
31978;SDS011;18502;43.574;1.276;2023-04-06T12:02:11;1.63;;;1.52;;
31978;SDS011;18502;43.574;1.276;2023-04-06T12:04:37;1.30;;;1.10;;
31978;SDS011;18502;43.574;1.276;2023-04-06T12:07:03;3.30;;;1.17;;
31978;SDS011;18502;43.574;1.276;2023-04-06T12:09:29;4.05;;;1.17;;
31978;SDS011;18502;43.574;1.276;2023-04-06T12:11:55;2.33;;;1.10;;
31978;SDS011;18502;43.574;1.276;2023-04-06T12:14:21;1.88;;;0.90;;
31978;SDS011;18502;43.574;1.276;2023-04-06T12:16:48;1.27;;;0.80;;
31978;SDS011;18502;43.574;1.276;2023-04-06T12:19:13;1.63;;;0.80;;
31978;SDS011;18502;43.574;1.276;2023-04-06T12:21:39;1.55;;;0.88;;
31978;SDS011;18502;43.574;1.276;2023-04-06T12:24:05;2.38;;;0.85;;
31978;SDS011;18502;43.574;1.276;2023-04-06T12:26:31;0.98;;;0.93;;
31978;SDS011;18502;43.574;1.276;2023-04-06T12:29:01;2.17;;;0.80;;
31978;SDS011;18502;43.574;1.276;2023-04-06T12:31:31;2.78;;;0.80;;
31978;SDS011;18502;43.574;1.276;2023-04-06T12:33:59;2.30;;;1.00;;
31978;SDS011;18502;43.574;1.276;2023-04-06T12:36:27;1.42;;;0.98;;
31978;SDS011;18502;43.574;1.276;2023-04-06T12:38:52;4.43;;;0.95;;
31978;SDS011;18502;43.574;1.276;2023-04-06T12:41:18;1.30;;;0.75;;
31978;SDS011;18502;43.574;1.276;2023-04-06T12:43:45;1.10;;;1.00;;
31978;SDS011;18502;43.574;1.276;2023-04-06T12:46:11;1.30;;;1.00;;
31978;SDS011;18502;43.574;1.276;2023-04-06T12:48:37;1.35;;;1.00;;
31978;SDS011;18502;43.574;1.276;2023-04-06T12:51:04;0.93;;;0.73;;
31978;SDS011;18502;43.574;1.276;2023-04-06T12:53:31;1.58;;;0.80;;
31978;SDS011;18502;43.574;1.276;2023-04-06T12:55:57;1.13;;;0.95;;
31978;SDS011;18502;43.574;1.276;2023-04-06T12:58:24;3.95;;;0.93;;
31978;SDS011;18502;43.574;1.276;2023-04-06T13:03:19;0.85;;;0.77;;
31978;SDS011;18502;43.574;1.276;2023-04-06T13:05:48;0.85;;;0.77;;
31978;SDS011;18502;43.574;1.276;2023-04-06T13:08:17;2.55;;;1.10;;
31978;SDS011;18502;43.574;1.276;2023-04-06T13:10:47;2.20;;;0.90;;
31978;SDS011;18502;43.574;1.276;2023-04-06T13:13:15;1.60;;;0.90;;
31978;SDS011;18502;43.574;1.276;2023-04-06T13:15:41;1.35;;;0.90;;
31978;SDS011;18502;43.574;1.276;2023-04-06T13:18:07;1.75;;;1.00;;
31978;SDS011;18502;43.574;1.276;2023-04-06T13:20:33;0.88;;;0.77;;
31978;SDS011;18502;43.574;1.276;2023-04-06T13:23:00;2.38;;;0.98;;
31978;SDS011;18502;43.574;1.276;2023-04-06T13:25:25;2.17;;;0.75;;
31978;SDS011;18502;43.574;1.276;2023-04-06T13:27:51;0.93;;;0.70;;
31978;SDS011;18502;43.574;1.276;2023-04-06T13:30:17;0.47;;;0.47;;
31978;SDS011;18502;43.574;1.276;2023-04-06T13:32:42;2.78;;;0.90;;
31978;SDS011;18502;43.574;1.276;2023-04-06T13:35:08;1.27;;;0.60;;
31978;SDS011;18502;43.574;1.276;2023-04-06T13:37:34;1.63;;;0.68;;
31978;SDS011;18502;43.574;1.276;2023-04-06T13:40:01;2.45;;;0.80;;
31978;SDS011;18502;43.574;1.276;2023-04-06T13:42:29;2.05;;;0.52;;
31978;SDS011;18502;43.574;1.276;2023-04-06T13:44:55;0.68;;;0.57;;
31978;SDS011;18502;43.574;1.276;2023-04-06T13:47:21;1.67;;;0.80;;
31978;SDS011;18502;43.574;1.276;2023-04-06T13:49:49;0.90;;;0.60;;
31978;SDS011;18502;43.574;1.276;2023-04-06T13:52:16;1.20;;;0.77;;
31978;SDS011;18502;43.574;1.276;2023-04-06T13:54:42;1.95;;;0.30;;
31978;SDS011;18502;43.574;1.276;2023-04-06T13:57:08;1.75;;;0.50;;
31978;SDS011;18502;43.574;1.276;2023-04-06T13:59:34;0.55;;;0.52;;
31978;SDS011;18502;43.574;1.276;2023-04-06T14:02:00;1.95;;;1.08;;
31978;SDS011;18502;43.574;1.276;2023-04-06T14:04:26;0.60;;;0.60;;
31978;SDS011;18502;43.574;1.276;2023-04-06T14:06:52;1.73;;;0.57;;
31978;SDS011;18502;43.574;1.276;2023-04-06T14:09:18;1.30;;;0.65;;
31978;SDS011;18502;43.574;1.276;2023-04-06T14:11:44;0.40;;;0.40;;
31978;SDS011;18502;43.574;1.276;2023-04-06T14:14:09;3.45;;;1.15;;
31978;SDS011;18502;43.574;1.276;2023-04-06T14:16:35;0.98;;;0.50;;
31978;SDS011;18502;43.574;1.276;2023-04-06T14:19:01;0.50;;;0.50;;
31978;SDS011;18502;43.574;1.276;2023-04-06T14:21:27;0.85;;;0.55;;
31978;SDS011;18502;43.574;1.276;2023-04-06T14:23:53;1.52;;;0.60;;
31978;SDS011;18502;43.574;1.276;2023-04-06T14:26:18;2.55;;;0.70;;
31978;SDS011;18502;43.574;1.276;2023-04-06T14:28:44;1.73;;;0.80;;
31978;SDS011;18502;43.574;1.276;2023-04-06T14:31:12;1.42;;;0.68;;
31978;SDS011;18502;43.574;1.276;2023-04-06T14:33:40;0.60;;;0.60;;
31978;SDS011;18502;43.574;1.276;2023-04-06T14:36:06;1.08;;;0.52;;
31978;SDS011;18502;43.574;1.276;2023-04-06T14:38:33;2.08;;;0.63;;
31978;SDS011;18502;43.574;1.276;2023-04-06T14:40:59;0.70;;;0.70;;
31978;SDS011;18502;43.574;1.276;2023-04-06T14:43:25;1.00;;;0.47;;
31978;SDS011;18502;43.574;1.276;2023-04-06T14:45:51;0.60;;;0.50;;
31978;SDS011;18502;43.574;1.276;2023-04-06T14:48:17;2.50;;;0.70;;
31978;SDS011;18502;43.574;1.276;2023-04-06T14:50:56;1.30;;;0.70;;
31978;SDS011;18502;43.574;1.276;2023-04-06T14:53:22;1.42;;;0.70;;
31978;SDS011;18502;43.574;1.276;2023-04-06T14:55:49;2.35;;;0.70;;
31978;SDS011;18502;43.574;1.276;2023-04-06T14:58:16;3.15;;;0.90;;